sensor_id;sensor_type;location;lat;lon;timestamp;pressure;altitude;pressure_sealevel;temperature
25514;BMP180;48128;54.242;10.280;2023-05-19T00:02:02;102502.00;;;4.60
25514;BMP180;48128;54.242;10.280;2023-05-19T00:04:31;102511.00;;;4.60
25514;BMP180;48128;54.242;10.280;2023-05-19T00:06:59;102513.00;;;4.70
25514;BMP180;48128;54.242;10.280;2023-05-19T00:09:27;102514.00;;;4.60
25514;BMP180;48128;54.242;10.280;2023-05-19T00:11:54;102502.00;;;4.60
25514;BMP180;48128;54.242;10.280;2023-05-19T00:14:22;102512.00;;;4.60
25514;BMP180;48128;54.242;10.280;2023-05-19T00:16:49;102510.00;;;4.50
25514;BMP180;48128;54.242;10.280;2023-05-19T00:19:16;102519.00;;;4.50
25514;BMP180;48128;54.242;10.280;2023-05-19T00:21:44;102503.00;;;4.40
25514;BMP180;48128;54.242;10.280;2023-05-19T00:24:11;102502.00;;;4.30
25514;BMP180;48128;54.242;10.280;2023-05-19T00:26:38;102508.00;;;4.30
25514;BMP180;48128;54.242;10.280;2023-05-19T00:29:05;102508.00;;;4.30
25514;BMP180;48128;54.242;10.280;2023-05-19T00:31:32;102501.00;;;4.30
25514;BMP180;48128;54.242;10.280;2023-05-19T00:34:00;102499.00;;;4.30
25514;BMP180;48128;54.242;10.280;2023-05-19T00:36:27;102495.00;;;4.30
25514;BMP180;48128;54.242;10.280;2023-05-19T00:38:54;102496.00;;;4.30
25514;BMP180;48128;54.242;10.280;2023-05-19T00:41:20;102491.00;;;4.20
25514;BMP180;48128;54.242;10.280;2023-05-19T00:43:50;102491.00;;;4.20
25514;BMP180;48128;54.242;10.280;2023-05-19T00:46:18;102509.00;;;4.20
25514;BMP180;48128;54.242;10.280;2023-05-19T00:48:45;102502.00;;;4.10
25514;BMP180;48128;54.242;10.280;2023-05-19T00:51:12;102493.00;;;4.10
25514;BMP180;48128;54.242;10.280;2023-05-19T00:53:42;102481.00;;;4.10
25514;BMP180;48128;54.242;10.280;2023-05-19T00:56:14;102491.00;;;4.10
25514;BMP180;48128;54.242;10.280;2023-05-19T00:58:44;102497.00;;;4.00
25514;BMP180;48128;54.242;10.280;2023-05-19T01:01:11;102476.00;;;3.90
25514;BMP180;48128;54.242;10.280;2023-05-19T01:03:40;102484.00;;;3.90
25514;BMP180;48128;54.242;10.280;2023-05-19T01:06:08;102484.00;;;3.90
25514;BMP180;48128;54.242;10.280;2023-05-19T01:08:36;102493.00;;;3.80
25514;BMP180;48128;54.242;10.280;2023-05-19T01:11:05;102480.00;;;3.80
25514;BMP180;48128;54.242;10.280;2023-05-19T01:13:36;102480.00;;;3.80
25514;BMP180;48128;54.242;10.280;2023-05-19T01:16:12;102482.00;;;3.70
25514;BMP180;48128;54.242;10.280;2023-05-19T01:30:54;102491.00;;;3.40
25514;BMP180;48128;54.242;10.280;2023-05-19T01:33:22;102489.00;;;3.40
25514;BMP180;48128;54.242;10.280;2023-05-19T01:35:50;102484.00;;;3.40
25514;BMP180;48128;54.242;10.280;2023-05-19T01:38:18;102489.00;;;3.30
25514;BMP180;48128;54.242;10.280;2023-05-19T01:40:47;102494.00;;;3.30
25514;BMP180;48128;54.242;10.280;2023-05-19T01:43:20;102493.00;;;3.30
25514;BMP180;48128;54.242;10.280;2023-05-19T01:45:47;102491.00;;;3.30
25514;BMP180;48128;54.242;10.280;2023-05-19T01:48:14;102493.00;;;3.30
25514;BMP180;48128;54.242;10.280;2023-05-19T01:50:42;102499.00;;;3.30
25514;BMP180;48128;54.242;10.280;2023-05-19T01:53:09;102511.00;;;3.20
25514;BMP180;48128;54.242;10.280;2023-05-19T01:55:45;102499.00;;;3.20
25514;BMP180;48128;54.242;10.280;2023-05-19T01:58:21;102514.00;;;3.20
25514;BMP180;48128;54.242;10.280;2023-05-19T02:01:15;102502.00;;;3.20
25514;BMP180;48128;54.242;10.280;2023-05-19T02:08:57;102518.00;;;3.20
25514;BMP180;48128;54.242;10.280;2023-05-19T02:14:11;102519.00;;;3.20
25514;BMP180;48128;54.242;10.280;2023-05-19T02:16:39;102520.00;;;3.20
25514;BMP180;48128;54.242;10.280;2023-05-19T02:19:06;102516.00;;;3.10
25514;BMP180;48128;54.242;10.280;2023-05-19T02:21:45;102516.00;;;3.10
25514;BMP180;48128;54.242;10.280;2023-05-19T02:24:12;102503.00;;;3.10
25514;BMP180;48128;54.242;10.280;2023-05-19T02:26:38;102516.00;;;3.10
25514;BMP180;48128;54.242;10.280;2023-05-19T02:29:06;102515.00;;;3.10
25514;BMP180;48128;54.242;10.280;2023-05-19T02:31:33;102520.00;;;3.10
25514;BMP180;48128;54.242;10.280;2023-05-19T02:33:59;102515.00;;;3.10
25514;BMP180;48128;54.242;10.280;2023-05-19T02:36:26;102517.00;;;3.10
25514;BMP180;48128;54.242;10.280;2023-05-19T02:38:53;102515.00;;;3.10
25514;BMP180;48128;54.242;10.280;2023-05-19T02:41:21;102519.00;;;3.10
25514;BMP180;48128;54.242;10.280;2023-05-19T02:43:47;102525.00;;;3.10
25514;BMP180;48128;54.242;10.280;2023-05-19T02:46:14;102522.00;;;3.10
25514;BMP180;48128;54.242;10.280;2023-05-19T02:48:41;102520.00;;;3.10
25514;BMP180;48128;54.242;10.280;2023-05-19T02:51:08;102525.00;;;3.10
25514;BMP180;48128;54.242;10.280;2023-05-19T02:53:35;102518.00;;;3.20
25514;BMP180;48128;54.242;10.280;2023-05-19T02:56:02;102518.00;;;3.20
25514;BMP180;48128;54.242;10.280;2023-05-19T02:58:29;102503.00;;;3.20
25514;BMP180;48128;54.242;10.280;2023-05-19T03:00:56;102510.00;;;3.20
25514;BMP180;48128;54.242;10.280;2023-05-19T03:03:23;102510.00;;;3.20
25514;BMP180;48128;54.242;10.280;2023-05-19T03:05:50;102507.00;;;3.20
25514;BMP180;48128;54.242;10.280;2023-05-19T03:08:17;102509.00;;;3.20
25514;BMP180;48128;54.242;10.280;2023-05-19T03:10:45;102522.00;;;3.10
25514;BMP180;48128;54.242;10.280;2023-05-19T03:13:12;102508.00;;;3.10
25514;BMP180;48128;54.242;10.280;2023-05-19T03:15:39;102510.00;;;3.20
25514;BMP180;48128;54.242;10.280;2023-05-19T03:18:08;102512.00;;;3.20
25514;BMP180;48128;54.242;10.280;2023-05-19T03:20:35;102501.00;;;3.20
25514;BMP180;48128;54.242;10.280;2023-05-19T03:23:02;102499.00;;;3.20
25514;BMP180;48128;54.242;10.280;2023-05-19T03:25:28;102512.00;;;3.20
25514;BMP180;48128;54.242;10.280;2023-05-19T03:27:55;102499.00;;;3.20
25514;BMP180;48128;54.242;10.280;2023-05-19T03:30:22;102501.00;;;3.20
25514;BMP180;48128;54.242;10.280;2023-05-19T03:32:49;102505.00;;;3.20
25514;BMP180;48128;54.242;10.280;2023-05-19T03:35:17;102496.00;;;3.20
25514;BMP180;48128;54.242;10.280;2023-05-19T03:37:44;102503.00;;;3.30
25514;BMP180;48128;54.242;10.280;2023-05-19T03:40:11;102499.00;;;3.30
25514;BMP180;48128;54.242;10.280;2023-05-19T03:42:38;102507.00;;;3.30
25514;BMP180;48128;54.242;10.280;2023-05-19T03:45:06;102508.00;;;3.30
25514;BMP180;48128;54.242;10.280;2023-05-19T03:47:33;102511.00;;;3.40
25514;BMP180;48128;54.242;10.280;2023-05-19T03:49:59;102506.00;;;3.40
25514;BMP180;48128;54.242;10.280;2023-05-19T03:52:27;102499.00;;;3.50
25514;BMP180;48128;54.242;10.280;2023-05-19T03:54:54;102502.00;;;3.50
25514;BMP180;48128;54.242;10.280;2023-05-19T03:57:23;102501.00;;;3.50
25514;BMP180;48128;54.242;10.280;2023-05-19T03:59:50;102511.00;;;3.50
25514;BMP180;48128;54.242;10.280;2023-05-19T04:02:17;102521.00;;;3.60
25514;BMP180;48128;54.242;10.280;2023-05-19T04:04:43;102500.00;;;3.60
25514;BMP180;48128;54.242;10.280;2023-05-19T04:07:10;102507.00;;;3.60
25514;BMP180;48128;54.242;10.280;2023-05-19T04:09:38;102498.00;;;3.70
25514;BMP180;48128;54.242;10.280;2023-05-19T04:12:05;102506.00;;;3.70
25514;BMP180;48128;54.242;10.280;2023-05-19T04:14:32;102515.00;;;3.80
25514;BMP180;48128;54.242;10.280;2023-05-19T04:16:59;102514.00;;;3.80
25514;BMP180;48128;54.242;10.280;2023-05-19T04:19:26;102524.00;;;3.90
25514;BMP180;48128;54.242;10.280;2023-05-19T04:21:53;102528.00;;;3.90
25514;BMP180;48128;54.242;10.280;2023-05-19T04:24:20;102515.00;;;4.00
25514;BMP180;48128;54.242;10.280;2023-05-19T04:26:47;102524.00;;;4.10
25514;BMP180;48128;54.242;10.280;2023-05-19T04:29:14;102518.00;;;4.20
25514;BMP180;48128;54.242;10.280;2023-05-19T04:31:43;102519.00;;;4.20
25514;BMP180;48128;54.242;10.280;2023-05-19T04:34:10;102519.00;;;4.30
25514;BMP180;48128;54.242;10.280;2023-05-19T04:36:37;102531.00;;;4.30
25514;BMP180;48128;54.242;10.280;2023-05-19T04:39:04;102530.00;;;4.40
25514;BMP180;48128;54.242;10.280;2023-05-19T04:41:34;102527.00;;;4.40
25514;BMP180;48128;54.242;10.280;2023-05-19T04:44:06;102523.00;;;4.50
25514;BMP180;48128;54.242;10.280;2023-05-19T04:46:34;102527.00;;;4.60
25514;BMP180;48128;54.242;10.280;2023-05-19T04:49:01;102531.00;;;4.70
25514;BMP180;48128;54.242;10.280;2023-05-19T04:51:28;102522.00;;;4.80
25514;BMP180;48128;54.242;10.280;2023-05-19T04:53:57;102534.00;;;4.80
25514;BMP180;48128;54.242;10.280;2023-05-19T04:56:24;102530.00;;;4.90
25514;BMP180;48128;54.242;10.280;2023-05-19T04:58:52;102527.00;;;5.00
25514;BMP180;48128;54.242;10.280;2023-05-19T05:01:22;102535.00;;;5.10
25514;BMP180;48128;54.242;10.280;2023-05-19T05:03:52;102538.00;;;5.20
25514;BMP180;48128;54.242;10.280;2023-05-19T05:06:24;102536.00;;;5.30
25514;BMP180;48128;54.242;10.280;2023-05-19T05:08:52;102533.00;;;5.40
25514;BMP180;48128;54.242;10.280;2023-05-19T05:11:19;102527.00;;;5.50
25514;BMP180;48128;54.242;10.280;2023-05-19T05:13:46;102531.00;;;5.60
25514;BMP180;48128;54.242;10.280;2023-05-19T05:16:14;102555.00;;;5.80
25514;BMP180;48128;54.242;10.280;2023-05-19T05:18:41;102544.00;;;5.90
25514;BMP180;48128;54.242;10.280;2023-05-19T05:21:11;102542.00;;;6.00
25514;BMP180;48128;54.242;10.280;2023-05-19T05:23:38;102542.00;;;6.20
25514;BMP180;48128;54.242;10.280;2023-05-19T05:26:08;102537.00;;;6.30
25514;BMP180;48128;54.242;10.280;2023-05-19T05:28:36;102523.00;;;6.50
25514;BMP180;48128;54.242;10.280;2023-05-19T05:31:03;102531.00;;;6.70
25514;BMP180;48128;54.242;10.280;2023-05-19T05:33:29;102538.00;;;6.80
25514;BMP180;48128;54.242;10.280;2023-05-19T05:35:57;102527.00;;;7.10
25514;BMP180;48128;54.242;10.280;2023-05-19T05:38:24;102533.00;;;7.30
25514;BMP180;48128;54.242;10.280;2023-05-19T05:40:51;102526.00;;;7.50
25514;BMP180;48128;54.242;10.280;2023-05-19T05:43:18;102538.00;;;7.70
25514;BMP180;48128;54.242;10.280;2023-05-19T05:45:45;102537.00;;;7.90
25514;BMP180;48128;54.242;10.280;2023-05-19T05:48:12;102544.00;;;8.10
25514;BMP180;48128;54.242;10.280;2023-05-19T05:50:39;102546.00;;;8.30
25514;BMP180;48128;54.242;10.280;2023-05-19T05:53:08;102552.00;;;8.50
25514;BMP180;48128;54.242;10.280;2023-05-19T05:55:35;102548.00;;;8.60
25514;BMP180;48128;54.242;10.280;2023-05-19T05:58:02;102554.00;;;8.80
25514;BMP180;48128;54.242;10.280;2023-05-19T06:00:29;102562.00;;;9.00
25514;BMP180;48128;54.242;10.280;2023-05-19T06:02:56;102563.00;;;9.10
25514;BMP180;48128;54.242;10.280;2023-05-19T06:05:24;102554.00;;;9.20
25514;BMP180;48128;54.242;10.280;2023-05-19T06:07:51;102557.00;;;9.30
25514;BMP180;48128;54.242;10.280;2023-05-19T06:10:18;102559.00;;;9.50
25514;BMP180;48128;54.242;10.280;2023-05-19T06:12:45;102554.00;;;9.60
25514;BMP180;48128;54.242;10.280;2023-05-19T06:15:12;102563.00;;;9.70
25514;BMP180;48128;54.242;10.280;2023-05-19T06:17:39;102562.00;;;9.80
25514;BMP180;48128;54.242;10.280;2023-05-19T06:20:06;102567.00;;;9.90
25514;BMP180;48128;54.242;10.280;2023-05-19T06:22:35;102565.00;;;10.00
25514;BMP180;48128;54.242;10.280;2023-05-19T06:25:04;102565.00;;;10.00
25514;BMP180;48128;54.242;10.280;2023-05-19T06:27:31;102558.00;;;10.10
25514;BMP180;48128;54.242;10.280;2023-05-19T06:30:00;102577.00;;;10.20
25514;BMP180;48128;54.242;10.280;2023-05-19T06:32:27;102573.00;;;10.30
25514;BMP180;48128;54.242;10.280;2023-05-19T06:34:55;102569.00;;;10.30
25514;BMP180;48128;54.242;10.280;2023-05-19T06:37:22;102589.00;;;10.40
25514;BMP180;48128;54.242;10.280;2023-05-19T06:39:52;102571.00;;;10.50
25514;BMP180;48128;54.242;10.280;2023-05-19T06:42:19;102584.00;;;10.50
25514;BMP180;48128;54.242;10.280;2023-05-19T06:44:51;102586.00;;;10.50
25514;BMP180;48128;54.242;10.280;2023-05-19T06:47:18;102594.00;;;10.60
25514;BMP180;48128;54.242;10.280;2023-05-19T06:49:46;102602.00;;;10.60
25514;BMP180;48128;54.242;10.280;2023-05-19T06:52:16;102608.00;;;10.60
25514;BMP180;48128;54.242;10.280;2023-05-19T06:54:43;102618.00;;;10.60
25514;BMP180;48128;54.242;10.280;2023-05-19T06:57:10;102628.00;;;10.70
25514;BMP180;48128;54.242;10.280;2023-05-19T06:59:36;102630.00;;;10.80
25514;BMP180;48128;54.242;10.280;2023-05-19T07:02:06;102620.00;;;10.90
25514;BMP180;48128;54.242;10.280;2023-05-19T07:04:34;102640.00;;;11.00
25514;BMP180;48128;54.242;10.280;2023-05-19T07:07:01;102628.00;;;11.10
25514;BMP180;48128;54.242;10.280;2023-05-19T07:09:28;102623.00;;;11.20
25514;BMP180;48128;54.242;10.280;2023-05-19T07:11:55;102641.00;;;11.40
25514;BMP180;48128;54.242;10.280;2023-05-19T07:14:22;102634.00;;;11.50
25514;BMP180;48128;54.242;10.280;2023-05-19T07:16:49;102632.00;;;11.50
25514;BMP180;48128;54.242;10.280;2023-05-19T07:19:16;102644.00;;;11.50
25514;BMP180;48128;54.242;10.280;2023-05-19T07:21:45;102645.00;;;11.50
25514;BMP180;48128;54.242;10.280;2023-05-19T07:24:12;102644.00;;;11.50
25514;BMP180;48128;54.242;10.280;2023-05-19T07:26:39;102638.00;;;11.60
25514;BMP180;48128;54.242;10.280;2023-05-19T07:29:07;102632.00;;;11.70
25514;BMP180;48128;54.242;10.280;2023-05-19T07:31:33;102634.00;;;11.70
25514;BMP180;48128;54.242;10.280;2023-05-19T07:34:02;102627.00;;;11.80
25514;BMP180;48128;54.242;10.280;2023-05-19T07:36:28;102645.00;;;11.80
25514;BMP180;48128;54.242;10.280;2023-05-19T07:38:56;102650.00;;;11.90
25514;BMP180;48128;54.242;10.280;2023-05-19T07:41:23;102641.00;;;12.00
25514;BMP180;48128;54.242;10.280;2023-05-19T07:43:49;102645.00;;;12.20
25514;BMP180;48128;54.242;10.280;2023-05-19T07:46:16;102647.00;;;12.30
25514;BMP180;48128;54.242;10.280;2023-05-19T07:48:43;102646.00;;;12.40
25514;BMP180;48128;54.242;10.280;2023-05-19T07:51:11;102627.00;;;12.40
25514;BMP180;48128;54.242;10.280;2023-05-19T07:53:38;102654.00;;;12.50
25514;BMP180;48128;54.242;10.280;2023-05-19T07:56:05;102644.00;;;12.50
25514;BMP180;48128;54.242;10.280;2023-05-19T07:58:32;102648.00;;;12.50
25514;BMP180;48128;54.242;10.280;2023-05-19T08:00:59;102658.00;;;12.50
25514;BMP180;48128;54.242;10.280;2023-05-19T08:03:26;102671.00;;;12.50
25514;BMP180;48128;54.242;10.280;2023-05-19T08:05:53;102655.00;;;12.50
25514;BMP180;48128;54.242;10.280;2023-05-19T08:08:20;102649.00;;;12.50
25514;BMP180;48128;54.242;10.280;2023-05-19T08:10:47;102660.00;;;12.40
25514;BMP180;48128;54.242;10.280;2023-05-19T08:13:14;102679.00;;;12.40
25514;BMP180;48128;54.242;10.280;2023-05-19T08:15:41;102675.00;;;12.40
25514;BMP180;48128;54.242;10.280;2023-05-19T08:18:08;102675.00;;;12.40
25514;BMP180;48128;54.242;10.280;2023-05-19T08:20:35;102690.00;;;12.40
25514;BMP180;48128;54.242;10.280;2023-05-19T08:23:02;102663.00;;;12.50
25514;BMP180;48128;54.242;10.280;2023-05-19T08:25:29;102675.00;;;12.50
25514;BMP180;48128;54.242;10.280;2023-05-19T08:27:56;102652.00;;;12.60
25514;BMP180;48128;54.242;10.280;2023-05-19T08:30:22;102654.00;;;12.80
25514;BMP180;48128;54.242;10.280;2023-05-19T08:32:49;102678.00;;;12.90
25514;BMP180;48128;54.242;10.280;2023-05-19T08:35:16;102663.00;;;13.10
25514;BMP180;48128;54.242;10.280;2023-05-19T08:37:43;102675.00;;;13.30
25514;BMP180;48128;54.242;10.280;2023-05-19T08:40:14;102675.00;;;13.30
25514;BMP180;48128;54.242;10.280;2023-05-19T08:42:42;102685.00;;;13.30
25514;BMP180;48128;54.242;10.280;2023-05-19T08:45:09;102667.00;;;13.30
25514;BMP180;48128;54.242;10.280;2023-05-19T08:47:36;102689.00;;;13.40
25514;BMP180;48128;54.242;10.280;2023-05-19T08:50:05;102666.00;;;13.50
25514;BMP180;48128;54.242;10.280;2023-05-19T08:52:50;102677.00;;;13.70
25514;BMP180;48128;54.242;10.280;2023-05-19T08:58:02;102652.00;;;14.10
25514;BMP180;48128;54.242;10.280;2023-05-19T09:00:29;102665.00;;;14.50
25514;BMP180;48128;54.242;10.280;2023-05-19T09:02:57;102661.00;;;14.60
25514;BMP180;48128;54.242;10.280;2023-05-19T09:05:42;102658.00;;;14.70
25514;BMP180;48128;54.242;10.280;2023-05-19T09:08:09;102671.00;;;14.60
25514;BMP180;48128;54.242;10.280;2023-05-19T09:10:36;102646.00;;;14.70
25514;BMP180;48128;54.242;10.280;2023-05-19T09:13:04;102653.00;;;14.70
25514;BMP180;48128;54.242;10.280;2023-05-19T09:15:31;102646.00;;;14.90
25514;BMP180;48128;54.242;10.280;2023-05-19T09:18:10;102665.00;;;14.90
25514;BMP180;48128;54.242;10.280;2023-05-19T09:20:45;102657.00;;;15.00
25514;BMP180;48128;54.242;10.280;2023-05-19T09:23:13;102641.00;;;15.00
25514;BMP180;48128;54.242;10.280;2023-05-19T09:25:49;102653.00;;;15.00
25514;BMP180;48128;54.242;10.280;2023-05-19T09:28:27;102655.00;;;15.10
25514;BMP180;48128;54.242;10.280;2023-05-19T09:31:08;102682.00;;;15.30
25514;BMP180;48128;54.242;10.280;2023-05-19T09:33:36;102656.00;;;15.10
25514;BMP180;48128;54.242;10.280;2023-05-19T09:36:04;102632.00;;;15.10
25514;BMP180;48128;54.242;10.280;2023-05-19T09:38:34;102652.00;;;15.10
25514;BMP180;48128;54.242;10.280;2023-05-19T09:41:02;102648.00;;;15.10
25514;BMP180;48128;54.242;10.280;2023-05-19T09:43:30;102658.00;;;15.20
25514;BMP180;48128;54.242;10.280;2023-05-19T09:46:06;102659.00;;;15.20
25514;BMP180;48128;54.242;10.280;2023-05-19T09:48:34;102668.00;;;15.20
25514;BMP180;48128;54.242;10.280;2023-05-19T09:51:03;102660.00;;;15.30
25514;BMP180;48128;54.242;10.280;2023-05-19T09:53:33;102660.00;;;15.40
25514;BMP180;48128;54.242;10.280;2023-05-19T09:56:01;102668.00;;;15.60
25514;BMP180;48128;54.242;10.280;2023-05-19T09:58:32;102676.00;;;15.60
25514;BMP180;48128;54.242;10.280;2023-05-19T10:01:03;102652.00;;;15.90
25514;BMP180;48128;54.242;10.280;2023-05-19T10:03:30;102654.00;;;15.90
25514;BMP180;48128;54.242;10.280;2023-05-19T10:06:01;102660.00;;;15.60
25514;BMP180;48128;54.242;10.280;2023-05-19T10:08:29;102639.00;;;15.50
25514;BMP180;48128;54.242;10.280;2023-05-19T10:10:57;102644.00;;;15.60
25514;BMP180;48128;54.242;10.280;2023-05-19T10:13:24;102635.00;;;15.90
25514;BMP180;48128;54.242;10.280;2023-05-19T10:15:52;102657.00;;;15.90
25514;BMP180;48128;54.242;10.280;2023-05-19T10:18:25;102625.00;;;16.00
25514;BMP180;48128;54.242;10.280;2023-05-19T10:20:53;102623.00;;;16.00
25514;BMP180;48128;54.242;10.280;2023-05-19T10:23:20;102620.00;;;16.00
25514;BMP180;48128;54.242;10.280;2023-05-19T10:25:50;102625.00;;;15.90
25514;BMP180;48128;54.242;10.280;2023-05-19T10:28:17;102611.00;;;15.80
25514;BMP180;48128;54.242;10.280;2023-05-19T10:30:48;102614.00;;;15.90
25514;BMP180;48128;54.242;10.280;2023-05-19T10:33:17;102615.00;;;15.90
25514;BMP180;48128;54.242;10.280;2023-05-19T10:43:51;102608.00;;;16.50
25514;BMP180;48128;54.242;10.280;2023-05-19T10:46:25;102616.00;;;16.40
25514;BMP180;48128;54.242;10.280;2023-05-19T10:48:52;102626.00;;;16.30
25514;BMP180;48128;54.242;10.280;2023-05-19T10:51:20;102619.00;;;16.30
25514;BMP180;48128;54.242;10.280;2023-05-19T10:53:47;102614.00;;;16.50
25514;BMP180;48128;54.242;10.280;2023-05-19T10:56:29;102617.00;;;16.60
25514;BMP180;48128;54.242;10.280;2023-05-19T10:59:06;102606.00;;;16.40
25514;BMP180;48128;54.242;10.280;2023-05-19T11:01:34;102584.00;;;16.40
25514;BMP180;48128;54.242;10.280;2023-05-19T11:04:07;102586.00;;;16.30
25514;BMP180;48128;54.242;10.280;2023-05-19T11:06:42;102567.00;;;16.40
25514;BMP180;48128;54.242;10.280;2023-05-19T11:09:17;102588.00;;;16.50
25514;BMP180;48128;54.242;10.280;2023-05-19T11:11:54;102596.00;;;16.60
25514;BMP180;48128;54.242;10.280;2023-05-19T11:14:22;102586.00;;;16.60
25514;BMP180;48128;54.242;10.280;2023-05-19T11:16:55;102574.00;;;16.50
25514;BMP180;48128;54.242;10.280;2023-05-19T11:19:33;102588.00;;;16.60
25514;BMP180;48128;54.242;10.280;2023-05-19T11:22:10;102581.00;;;16.80
25514;BMP180;48128;54.242;10.280;2023-05-19T11:24:47;102592.00;;;16.80
25514;BMP180;48128;54.242;10.280;2023-05-19T11:30:16;102587.00;;;16.70
25514;BMP180;48128;54.242;10.280;2023-05-19T11:32:48;102590.00;;;16.70
25514;BMP180;48128;54.242;10.280;2023-05-19T11:35:15;102583.00;;;16.60
25514;BMP180;48128;54.242;10.280;2023-05-19T11:37:44;102576.00;;;16.70
25514;BMP180;48128;54.242;10.280;2023-05-19T11:40:13;102590.00;;;16.90
25514;BMP180;48128;54.242;10.280;2023-05-19T11:42:41;102542.00;;;17.10
25514;BMP180;48128;54.242;10.280;2023-05-19T11:45:08;102567.00;;;17.10
25514;BMP180;48128;54.242;10.280;2023-05-19T11:47:36;102572.00;;;17.00
25514;BMP180;48128;54.242;10.280;2023-05-19T11:50:24;102575.00;;;17.00
25514;BMP180;48128;54.242;10.280;2023-05-19T11:52:51;102548.00;;;17.00
25514;BMP180;48128;54.242;10.280;2023-05-19T11:55:19;102582.00;;;17.10
25514;BMP180;48128;54.242;10.280;2023-05-19T11:57:57;102566.00;;;17.10
25514;BMP180;48128;54.242;10.280;2023-05-19T12:00:35;102587.00;;;17.50
25514;BMP180;48128;54.242;10.280;2023-05-19T12:03:05;102582.00;;;17.40
25514;BMP180;48128;54.242;10.280;2023-05-19T12:05:34;102577.00;;;17.30
25514;BMP180;48128;54.242;10.280;2023-05-19T12:08:07;102579.00;;;17.10
25514;BMP180;48128;54.242;10.280;2023-05-19T12:10:34;102567.00;;;17.20
25514;BMP180;48128;54.242;10.280;2023-05-19T12:13:02;102579.00;;;17.30
25514;BMP180;48128;54.242;10.280;2023-05-19T12:15:30;102574.00;;;17.30
25514;BMP180;48128;54.242;10.280;2023-05-19T12:17:59;102569.00;;;17.40
25514;BMP180;48128;54.242;10.280;2023-05-19T12:20:27;102588.00;;;17.50
25514;BMP180;48128;54.242;10.280;2023-05-19T12:22:55;102566.00;;;17.40
25514;BMP180;48128;54.242;10.280;2023-05-19T12:25:22;102569.00;;;17.40
25514;BMP180;48128;54.242;10.280;2023-05-19T12:27:49;102560.00;;;17.40
25514;BMP180;48128;54.242;10.280;2023-05-19T12:30:24;102554.00;;;17.30
25514;BMP180;48128;54.242;10.280;2023-05-19T12:32:52;102567.00;;;17.30
25514;BMP180;48128;54.242;10.280;2023-05-19T12:35:19;102558.00;;;17.20
25514;BMP180;48128;54.242;10.280;2023-05-19T12:37:48;102547.00;;;17.20
25514;BMP180;48128;54.242;10.280;2023-05-19T12:40:16;102548.00;;;17.00
25514;BMP180;48128;54.242;10.280;2023-05-19T12:42:44;102539.00;;;17.10
25514;BMP180;48128;54.242;10.280;2023-05-19T12:45:11;102554.00;;;17.10
25514;BMP180;48128;54.242;10.280;2023-05-19T12:47:38;102531.00;;;17.10
25514;BMP180;48128;54.242;10.280;2023-05-19T12:50:06;102548.00;;;17.10
25514;BMP180;48128;54.242;10.280;2023-05-19T12:52:44;102549.00;;;17.10
25514;BMP180;48128;54.242;10.280;2023-05-19T12:55:12;102559.00;;;17.00
25514;BMP180;48128;54.242;10.280;2023-05-19T12:57:46;102561.00;;;16.80
25514;BMP180;48128;54.242;10.280;2023-05-19T13:00:18;102563.00;;;16.90
25514;BMP180;48128;54.242;10.280;2023-05-19T13:02:57;102547.00;;;16.80
25514;BMP180;48128;54.242;10.280;2023-05-19T13:05:29;102539.00;;;16.70
25514;BMP180;48128;54.242;10.280;2023-05-19T13:08:05;102549.00;;;16.80
25514;BMP180;48128;54.242;10.280;2023-05-19T13:10:34;102543.00;;;16.90
25514;BMP180;48128;54.242;10.280;2023-05-19T13:13:02;102540.00;;;17.00
25514;BMP180;48128;54.242;10.280;2023-05-19T13:15:31;102558.00;;;17.00
25514;BMP180;48128;54.242;10.280;2023-05-19T13:18:01;102550.00;;;17.00
25514;BMP180;48128;54.242;10.280;2023-05-19T13:20:29;102525.00;;;16.90
25514;BMP180;48128;54.242;10.280;2023-05-19T13:22:56;102527.00;;;16.90
25514;BMP180;48128;54.242;10.280;2023-05-19T13:25:23;102530.00;;;16.80
25514;BMP180;48128;54.242;10.280;2023-05-19T13:27:50;102517.00;;;16.70
25514;BMP180;48128;54.242;10.280;2023-05-19T13:30:17;102518.00;;;16.70
25514;BMP180;48128;54.242;10.280;2023-05-19T13:32:44;102508.00;;;16.80
25514;BMP180;48128;54.242;10.280;2023-05-19T13:35:12;102510.00;;;16.90
25514;BMP180;48128;54.242;10.280;2023-05-19T13:37:40;102506.00;;;16.80
25514;BMP180;48128;54.242;10.280;2023-05-19T13:40:08;102500.00;;;16.80
25514;BMP180;48128;54.242;10.280;2023-05-19T13:42:35;102495.00;;;16.90
25514;BMP180;48128;54.242;10.280;2023-05-19T13:45:02;102508.00;;;16.80
25514;BMP180;48128;54.242;10.280;2023-05-19T13:47:31;102501.00;;;16.80
25514;BMP180;48128;54.242;10.280;2023-05-19T13:49:58;102518.00;;;16.60
25514;BMP180;48128;54.242;10.280;2023-05-19T13:52:25;102496.00;;;16.60
25514;BMP180;48128;54.242;10.280;2023-05-19T13:54:54;102485.00;;;16.40
25514;BMP180;48128;54.242;10.280;2023-05-19T13:57:23;102481.00;;;16.30
25514;BMP180;48128;54.242;10.280;2023-05-19T13:59:55;102478.00;;;16.30
25514;BMP180;48128;54.242;10.280;2023-05-19T14:02:28;102470.00;;;16.20
25514;BMP180;48128;54.242;10.280;2023-05-19T14:04:56;102476.00;;;16.20
25514;BMP180;48128;54.242;10.280;2023-05-19T14:07:23;102472.00;;;16.10
25514;BMP180;48128;54.242;10.280;2023-05-19T14:09:52;102462.00;;;16.30
25514;BMP180;48128;54.242;10.280;2023-05-19T14:12:24;102477.00;;;16.70
25514;BMP180;48128;54.242;10.280;2023-05-19T14:15:13;102475.00;;;17.10
25514;BMP180;48128;54.242;10.280;2023-05-19T14:17:43;102466.00;;;17.40
25514;BMP180;48128;54.242;10.280;2023-05-19T14:20:10;102499.00;;;17.40
25514;BMP180;48128;54.242;10.280;2023-05-19T14:22:38;102484.00;;;17.50
25514;BMP180;48128;54.242;10.280;2023-05-19T14:25:05;102490.00;;;17.50
25514;BMP180;48128;54.242;10.280;2023-05-19T14:27:32;102494.00;;;17.60
25514;BMP180;48128;54.242;10.280;2023-05-19T14:32:46;102501.00;;;17.10
25514;BMP180;48128;54.242;10.280;2023-05-19T14:35:13;102506.00;;;16.70